Latest Weather Observations for Newdegate

IDW60801

Issued at 6:35 am WST Thursday 23 October 2014 (issued every 30 minutes, with the page automatically refreshed every 10 minutes)

About weather observations | Map of weather stations | Latest weather observations for WA | Other Formats
Station Details ID: 010692 Name: NEWDEGATE RESEARCH STATION Lat: -33.11 Lon: 118.84 Height: 320.0 m
Data from the previous 72 hours. | See also: Recent months at Newdegate
Date/Time
WST
Temp
°C
App
Temp
°C
Dew
Point
Rel
Hum
%
Delta-T
°C
Wind Press
QNH
hPa
Press
MSL
hPa
Rain
since 9 am
mm
Dir
 
Spd
km/h
Gust
km/h
Spd
kts
Gust
kts
23/06:30am 14.2 10.3 12.1 87 1.2 NW 24 33 13 18 1012.6 1012.1 0.8
23/06:00am 13.7 10.7 11.9 89 1.0 WNW 19 30 10 16 1012.5 1012.0 0.8
23/05:30am 13.3 10.2 11.5 89 1.0 NW 19 28 10 15 1012.1 1011.7 0.8
23/05:00am 13.4 10.3 11.6 89 1.0 NW 19 26 10 14 1011.9 1011.5 0.8
23/04:30am 13.0 10.1 10.9 87 1.1 NW 17 22 9 12 1011.9 1011.5 0.8
23/04:00am 13.3 10.8 11.2 87 1.1 NW 15 20 8 11 1011.3 1010.9 0.8
23/03:30am 13.0 12.1 10.7 86 1.2 WNW 6 11 3 6 1011.3 1010.9 0.8
23/03:00am 13.4 11.2 10.9 85 1.3 WNW 13 17 7 9 1011.6 1011.2 0.8
23/02:30am 13.7 10.5 11.2 85 1.3 WNW 19 28 10 15 1011.6 1011.2 0.8
23/02:00am 14.1 10.9 11.8 86 1.3 W 20 32 11 17 1011.2 1010.7 0.8
23/01:30am 14.4 11.4 12.1 86 1.3 WNW 19 26 10 14 1011.3 1010.9 0.8
23/01:00am 15.0 12.5 12.3 84 1.5 WNW 17 24 9 13 1011.2 1010.7 0.8
23/12:30am 15.4 13.0 12.5 83 1.6 WNW 17 26 9 14 1011.3 1010.9 0.8
23/12:00am 15.8 13.0 12.5 81 1.8 WNW 19 26 10 14 1011.2 1010.7 0.8
 
Date/Time
WST
Temp
°C
App
Temp
°C
Dew
Point
Rel
Hum
%
Delta-T
°C
Wind Press
QNH
hPa
Press
MSL
hPa
Rain
since 9 am
mm
Dir
 
Spd
km/h
Gust
km/h
Spd
kts
Gust
kts
22/11:30pm 16.3 13.9 12.8 80 2.0 W 17 26 9 14 1011.2 1010.7 0.8
22/11:00pm 17.0 13.8 13.1 78 2.2 W 22 35 12 19 1010.9 1010.4 0.8
22/10:30pm 17.1 14.2 14.0 82 1.8 WNW 22 32 12 17 1010.8 1010.3 0.8
22/10:00pm 17.3 16.1 14.0 81 1.9 W 13 24 7 13 1010.3 1009.8 0.8
22/09:30pm 18.0 18.2 13.1 73 2.8 NNW 4 7 2 4 1010.0 1009.5 0.8
22/09:00pm 17.9 17.6 13.2 74 2.7 NNE 7 13 4 7 1010.0 1009.5 0.8
22/08:30pm 19.0 18.6 13.0 68 3.4 NE 7 15 4 8 1010.7 1010.2 0.8
22/08:00pm 20.4 19.5 13.6 65 4.0 E 11 15 6 8 1010.1 1009.6 0.8
22/07:30pm 20.2 18.9 13.6 66 3.8 E 13 19 7 10 1009.7 1009.2 0.8
22/07:00pm 20.6 19.9 14.3 67 3.7 ESE 11 15 6 8 1010.1 1009.6 0.8
22/06:30pm 20.1 18.8 13.8 67 3.7 E 13 15 7 8 1009.8 1009.3 0.8
22/06:00pm 20.5 20.0 13.7 65 4.0 NNE 9 20 5 11 1010.8 1010.3 0.8
22/05:38pm 24.8 19.3 11.7 44 7.5 ENE 32 56 17 30 1010.7 1010.2 0.0
22/05:30pm 26.4 22.4 10.5 37 9.0 E 22 30 12 16 1009.3 1008.8 0.0
22/05:00pm 26.8 22.8 10.5 36 9.3 E 22 35 12 19 1009.4 1008.9 0.0
22/04:30pm 27.8 22.4 9.6 32 10.3 E 28 39 15 21 1009.6 1009.1 0.0
22/04:00pm 29.6 24.6 9.7 29 11.3 E 26 35 14 19 1010.5 1010.0 0.0
22/03:30pm 30.1 25.8 10.6 30 11.3 E 24 37 13 20 1011.4 1011.0 0.0
22/03:00pm 30.0 25.4 11.0 31 11.1 E 26 41 14 22 1012.0 1011.6 0.0
22/02:30pm 29.7 25.8 10.8 31 11.0 ENE 22 37 12 20 1012.7 1012.2 0.0
22/02:00pm 29.5 25.9 10.6 31 10.9 E 20 30 11 16 1013.6 1013.1 0.0
22/01:30pm 29.2 26.2 12.6 36 9.9 ENE 20 28 11 15 1014.3 1013.9 0.0
22/01:00pm 28.0 24.7 11.5 35 9.6 ENE 20 35 11 19 1015.1 1014.7 0.0
22/12:30pm 27.9 25.1 13.1 40 8.8 ENE 20 28 11 15 1015.5 1015.1 0.0
22/12:00pm 26.4 23.5 12.8 43 8.0 ENE 20 32 11 17 1016.4 1015.9 0.0
22/11:30am 25.4 22.3 13.3 47 7.2 NE 22 30 12 16 1017.2 1016.8 0.0
22/11:00am 23.2 19.8 12.5 51 6.2 ENE 22 32 12 17 1017.4 1017.0 0.0
22/10:30am 22.1 18.8 12.9 56 5.3 ENE 22 32 12 17 1018.2 1017.8 0.0
22/10:00am 20.5 16.8 12.7 61 4.5 ENE 24 33 13 18 1018.8 1018.4 0.0
22/09:30am 19.5 16.6 12.8 65 3.8 ENE 20 30 11 16 1019.3 1018.8 0.0
22/09:00am 17.6 14.1 12.3 71 3.0 E 22 32 12 17 1019.6 1019.2 0.0
22/08:30am 15.8 12.2 11.8 77 2.2 ENE 22 33 12 18 1020.0 1019.6 0.0
22/08:00am 14.4 10.3 11.4 82 1.6 E 24 32 13 17 1020.2 1019.8 0.0
22/07:30am 13.6 10.2 11.3 86 1.2 E 20 28 11 15 1020.2 1019.8 0.0
22/07:00am 13.1 9.9 11.3 89 1.0 E 19 28 10 15 1020.2 1019.8 0.0
22/06:30am 12.5 9.1 10.7 89 1.0 E 19 28 10 15 1020.3 1019.9 0.0
22/06:00am 12.0 8.4 10.4 90 0.8 E 20 28 11 15 1020.2 1019.8 0.0
22/05:30am 11.7 8.5 10.1 90 0.8 E 17 24 9 13 1020.1 1019.7 0.0
22/05:00am 11.2 8.6 9.5 89 0.9 E 13 19 7 10 1019.9 1019.5 0.0
22/04:30am 11.5 8.6 9.8 89 0.9 E 15 20 8 11 1019.9 1019.5 0.0
22/04:00am 11.9 8.7 10.0 88 1.0 E 17 20 9 11 1020.0 1019.6 0.0
22/03:30am 12.0 8.3 10.1 88 1.0 E 20 32 11 17 1020.1 1019.7 0.0
22/03:00am 11.9 8.2 10.0 88 1.0 E 20 28 11 15 1020.2 1019.8 0.0
22/02:30am 12.3 8.6 10.2 87 1.1 E 20 26 11 14 1020.6 1020.2 0.0
22/02:00am 12.5 9.4 10.4 87 1.1 E 17 24 9 13 1020.8 1020.4 0.0
22/01:30am 12.6 9.0 10.5 87 1.1 E 20 26 11 14 1020.7 1020.3 0.0
22/01:00am 12.5 9.5 10.6 88 1.0 E 17 28 9 15 1021.0 1020.6 0.0
22/12:30am 12.6 9.6 10.7 88 1.0 E 17 24 9 13 1021.3 1020.9 0.0
22/12:00am 12.4 9.4 10.5 88 1.0 E 17 24 9 13 1021.5 1021.1 0.0
 
Date/Time
WST
Temp
°C
App
Temp
°C
Dew
Point
Rel
Hum
%
Delta-T
°C
Wind Press
QNH
hPa
Press
MSL
hPa
Rain
since 9 am
mm
Dir
 
Spd
km/h
Gust
km/h
Spd
kts
Gust
kts
21/11:30pm 12.2 9.1 10.3 88 1.0 E 17 22 9 12 1021.7 1021.3 0.0
21/11:00pm 11.8 9.7 9.9 88 1.0 ESE 11 15 6 8 1022.3 1021.9 0.0
21/10:30pm 12.0 9.2 9.9 87 1.1 E 15 20 8 11 1022.4 1022.0 0.0
21/10:00pm 12.3 9.5 10.0 86 1.2 ESE 15 22 8 12 1022.7 1022.3 0.0
21/09:30pm 12.8 10.1 10.5 86 1.2 ESE 15 20 8 11 1023.1 1022.7 0.0
21/09:00pm 13.2 10.1 10.4 83 1.5 ESE 17 24 9 13 1023.1 1022.7 0.0
21/08:30pm 13.9 10.0 10.7 81 1.7 ESE 22 32 12 17 1023.1 1022.7 0.0
21/08:00pm 14.6 10.6 10.6 77 2.1 ESE 22 33 12 18 1022.8 1022.4 0.0
21/07:30pm 15.5 12.3 11.1 75 2.4 SE 19 28 10 15 1022.7 1022.3 0.0
21/07:00pm 16.6 13.5 11.5 72 2.8 SE 19 28 10 15 1022.5 1022.1 0.0
21/06:30pm 18.2 15.1 11.7 66 3.6 ESE 19 24 10 13 1021.7 1021.3 0.0
21/06:00pm 20.5 19.0 9.1 48 6.1 E 7 9 4 5 1021.1 1020.7 0.0
21/05:30pm 21.9 19.8 8.1 41 7.3 E 9 13 5 7 1020.7 1020.3 0.0
21/05:00pm 22.7 20.5 8.0 39 7.8 SE 9 13 5 7 1020.5 1020.1 0.0
21/04:30pm 22.9 21.3 8.2 39 7.9 E 6 11 3 6 1020.6 1020.2 0.0
21/04:00pm 22.7 20.5 7.7 38 7.9 SSE 9 15 5 8 1020.6 1020.2 0.0
21/03:30pm 22.8 20.8 8.5 40 7.7 SE 9 15 5 8 1020.7 1020.3 0.0
21/03:00pm 22.6 20.9 8.3 40 7.6 SSW 7 20 4 11 1020.6 1020.2 0.0
21/02:30pm 22.9 21.7 9.7 43 7.3 SSE 6 13 3 7 1020.7 1020.3 0.0
21/02:00pm 22.1 20.1 8.6 42 7.2 S 9 13 5 7 1021.0 1020.6 0.0
21/01:30pm 22.1 20.3 9.6 45 6.8 S 9 17 5 9 1021.4 1021.0 0.0
21/01:00pm 21.7 20.8 10.5 49 6.2 SE 6 13 3 7 1021.8 1021.4 0.0
21/12:30pm 21.0 19.9 10.5 51 5.8 WSW 7 15 4 8 1021.9 1021.5 0.0
21/12:00pm 20.4 19.2 10.2 52 5.6 SSW 7 19 4 10 1022.1 1021.8 0.0
21/11:30am 19.3 18.2 9.8 54 5.1 W 6 9 3 5 1022.5 1022.1 0.0
21/11:00am 20.1 19.0 10.8 55 5.1 WNW 7 15 4 8 1022.9 1022.5 0.0
21/10:30am 16.9 15.7 9.6 62 3.9 N 6 9 3 5 1023.0 1022.6 0.0
21/10:00am 17.1 16.3 9.8 62 3.9 N 4 9 2 5 1023.0 1022.6 0.0
21/09:30am 16.1 15.1 10.2 68 3.2 SSE 6 9 3 5 1023.1 1022.7 0.0
21/09:00am 14.5 13.6 10.7 78 2.0 S 6 13 3 7 1023.2 1022.8 2.0
21/08:30am 12.8 12.0 11.0 89 1.0 SE 6 9 3 5 1023.2 1022.8 2.0
21/08:00am 12.0 11.5 10.7 92 0.7 S 4 9 2 5 1023.0 1022.6 2.0
21/07:30am 10.8 10.4 9.6 92 0.6 S 2 7 1 4 1022.8 1022.4 2.0
21/07:00am 10.3 8.8 9.1 92 0.6 S 7 11 4 6 1022.3 1021.9 2.0
21/06:30am 10.1 8.5 8.9 92 0.6 SW 7 9 4 5 1021.9 1021.5 2.0
21/06:00am 10.0 8.4 8.8 92 0.6 SW 7 11 4 6 1021.6 1021.2 2.0
21/05:30am 9.7 7.3 8.5 92 0.6 SW 11 17 6 9 1021.2 1020.8 2.0
21/05:00am 9.9 7.5 8.7 92 0.6 SW 11 17 6 9 1020.5 1020.1 2.0
21/04:30am 9.8 7.0 8.6 92 0.6 SW 13 19 7 10 1020.1 1019.7 2.0
21/04:00am 9.2 7.6 7.8 91 0.7 WSW 6 7 3 4 1019.9 1019.5 2.0
21/03:30am 9.4 7.6 8.0 91 0.7 WSW 7 9 4 5 1019.8 1019.4 2.0
21/03:00am 8.2 6.3 6.7 90 0.7 WSW 6 7 3 4 1019.6 1019.2 2.0
21/02:30am 9.2 7.9 7.6 90 0.8 WSW 4 6 2 3 1019.5 1019.1 2.0
21/02:00am 9.6 8.0 8.0 90 0.8 SW 6 9 3 5 1019.7 1019.3 2.0
21/01:30am 9.8 8.2 8.1 89 0.8 WSW 6 9 3 5 1019.6 1019.2 2.0
21/01:00am 10.5 9.1 8.8 89 0.9 W 6 7 3 4 1019.5 1019.1 2.0
21/12:30am 10.9 9.0 9.0 88 1.0 SW 9 15 5 8 1019.5 1019.1 2.0
21/12:00am 11.3 8.3 9.4 88 1.0 SW 15 19 8 10 1019.8 1019.4 2.0
 
Date/Time
WST
Temp
°C
App
Temp
°C
Dew
Point
Rel
Hum
%
Delta-T
°C
Wind Press
QNH
hPa
Press
MSL
hPa
Rain
since 9 am
mm
Dir
 
Spd
km/h
Gust
km/h
Spd
kts
Gust
kts
20/11:30pm 11.5 8.2 9.6 88 1.0 SW 17 20 9 11 1019.5 1019.1 2.0
20/11:00pm 11.7 9.2 9.6 87 1.1 SW 13 15 7 8 1019.6 1019.2 2.0
20/10:30pm 12.1 9.9 9.5 84 1.3 SW 11 15 6 8 1019.5 1019.1 2.0
20/10:00pm 13.2 10.4 10.0 81 1.7 SSW 15 20 8 11 1019.5 1019.1 2.0
20/09:30pm 13.6 12.1 10.6 82 1.6 SW 9 13 5 7 1019.5 1019.1 2.0
20/09:00pm 14.1 11.9 10.9 81 1.7 SSW 13 19 7 10 1019.6 1019.2 2.0
20/08:30pm 14.8 13.4 12.1 84 1.5 SSW 11 15 6 8 1019.4 1019.0 2.0
20/08:00pm 14.7 13.7 12.4 86 1.3 SW 9 15 5 8 1019.0 1018.5 2.0
20/07:30pm 14.8 12.8 12.7 87 1.2 SW 15 19 8 10 1018.4 1018.0 2.0
20/07:00pm 14.7 11.8 12.4 86 1.3 SW 19 26 10 14 1017.9 1017.5 2.0
20/06:30pm 15.4 12.0 12.5 83 1.6 SW 22 32 12 17 1017.8 1017.4 2.0
20/06:00pm 16.3 13.7 12.1 76 2.3 W 17 28 9 15 1016.9 1016.5 2.0
20/05:30pm 17.5 13.9 12.0 70 3.1 WSW 22 30 12 16 1016.4 1015.9 2.0
20/05:00pm 17.7 14.2 12.2 70 3.1 SW 22 30 12 16 1015.8 1015.3 2.0
20/04:30pm 17.1 14.4 13.0 77 2.3 W 19 26 10 14 1015.3 1014.9 2.0
20/04:10pm 17.0 12.2 11.7 71 2.9 WSW 28 48 15 26 1015.2 1014.8 2.0
20/04:00pm 19.8 17.1 13.5 67 3.7 WSW 20 30 11 16 1014.8 1014.4 2.0
20/03:30pm 19.6 16.1 13.5 68 3.5 WSW 24 32 13 17 1014.3 1013.9 2.0
20/03:00pm 17.6 15.0 13.9 79 2.1 WSW 20 33 11 18 1014.2 1013.8 2.0
20/02:30pm 17.3 13.2 13.8 80 2.0 WSW 28 37 15 20 1014.2 1013.8 2.0
20/02:00pm 18.7 16.6 15.2 80 2.1 W 20 35 11 19 1013.7 1013.2 2.0
20/01:30pm 16.9 15.7 14.0 83 1.7 W 13 22 7 12 1013.7 1013.2 1.6
20/01:00pm 19.6 18.1 15.3 76 2.6 WNW 17 24 9 13 1013.7 1013.2 0.4
20/12:30pm 18.5 16.3 14.8 79 2.2 WNW 20 28 11 15 1013.6 1013.1 0.4
20/12:00pm 16.5 14.6 14.2 86 1.3 WNW 17 28 9 15 1013.7 1013.2 0.4
20/11:30am 16.1 13.2 13.9 87 1.3 NW 22 33 12 18 1013.7 1013.2 0.2
20/11:00am 15.6 13.1 13.6 88 1.1 WNW 19 26 10 14 1013.8 1013.3 0.2
20/10:30am 15.6 12.9 12.9 84 1.5 WNW 19 30 10 16 1013.7 1013.2 0.2
20/10:00am 15.0 12.3 13.0 88 1.1 WNW 19 24 10 13 1013.7 1013.2 0.2
20/09:30am 13.9 10.8 12.1 89 1.0 WNW 20 28 11 15 1013.6 1013.1 0.0
20/09:00am 13.3 10.7 11.9 91 0.8 WNW 17 24 9 13 1013.9 1013.4 10.8
20/08:30am 13.1 10.1 11.8 92 0.7 WNW 19 28 10 15 1013.6 1013.1 10.8
20/08:00am 12.5 9.3 11.2 92 0.7 WNW 19 26 10 14 1013.3 1012.8 10.8
20/07:30am 12.0 9.5 10.9 93 0.6 WNW 15 26 8 14 1013.2 1012.7 10.8
20/07:00am 11.8 9.2 10.7 93 0.6 WNW 15 20 8 11 1013.0 1012.5 10.8

Other Formats:

Comma delimited format used in spreadsheet applications
http://www.bom.gov.au/fwo/IDW60801/IDW60801.94628.axf

JavaScript Object Notation format (JSON) in row-major order
http://www.bom.gov.au/fwo/IDW60801/IDW60801.94628.json